Time;durP1;ratioP1;P1;durP2;ratioP2;P2;SDS_P1;SDS_P2;PMS_P1;PMS_P2;Temp;Humidity;BMP_temperature;BMP_pressure;BME280_temperature;BME280_humidity;BME280_pressure;Samples;Min_cycle;Max_cycle;Signal;HPM_P1;HPM_P2
2021/08/02 00:02:37;;;;;;;0.10;0.10;;;;;;;13.92;84.22;101017.22;10398697;28;20532;-65
2021/08/02 00:07:40;;;;;;;0.10;0.10;;;;;;;13.92;83.86;101011.03;10407315;28;20026;-64
2021/08/02 00:12:46;;;;;;;0.10;0.10;;;;;;;13.92;84.30;101017.22;10407850;28;20075;-65
2021/08/02 00:17:48;;;;;;;0.10;0.10;;;;;;;13.90;84.00;101015.72;10414986;28;20061;-65
2021/08/02 00:22:48;;;;;;;0.10;0.10;;;;;;;13.85;83.43;101012.78;10415132;28;20459;-63
2021/08/02 00:27:51;;;;;;;0.00;0.00;;;;;;;13.79;83.25;101007.09;10415835;28;20124;-63
2021/08/02 00:32:52;;;;;;;0.00;0.00;;;;;;;13.74;83.15;101008.63;10433328;28;20064;-65
2021/08/02 00:37:59;;;;;;;0.10;0.10;;;;;;;13.70;83.90;101012.66;10424070;28;20425;-62
2021/08/02 00:43:09;;;;;;;0.10;0.10;;;;;;;13.67;84.41;101011.19;10414264;28;20080;-63
2021/08/02 00:48:15;;;;;;;0.10;0.10;;;;;;;13.63;85.43;101017.88;10414784;28;20057;-65
2021/08/02 00:53:20;;;;;;;0.10;0.10;;;;;;;13.56;86.14;101012.41;10414181;28;20053;-65
2021/08/02 00:58:23;;;;;;;0.10;0.10;;;;;;;13.53;86.63;101017.28;10426380;28;20025;-64
2021/08/02 01:03:24;;;;;;;0.10;0.10;;;;;;;13.52;87.28;101010.22;10443314;28;20387;-65
2021/08/02 01:08:28;;;;;;;0.10;0.10;;;;;;;13.52;87.09;101020.94;10428420;28;20534;-65
2021/08/02 01:13:32;;;;;;;;;;;;;;;13.54;86.44;101014.41;10421247;28;20501;-65
2021/08/02 01:18:33;;;;;;;;;;;;;;;13.47;86.90;101012.63;10413765;28;19913;-65
2021/08/02 01:23:35;;;;;;;0.10;0.10;;;;;;;13.36;87.21;101020.00;10413289;28;19920;-65
2021/08/02 01:28:35;;;;;;;0.10;0.10;;;;;;;13.23;87.57;101018.84;10411554;28;20555;-65
2021/08/02 01:33:36;;;;;;;0.10;0.10;;;;;;;13.08;87.75;101024.06;10412411;28;20092;-65
2021/08/02 01:38:36;;;;;;;0.10;0.10;;;;;;;12.98;87.89;101026.94;10419378;28;20473;-65
2021/08/02 01:43:36;;;;;;;0.10;0.10;;;;;;;12.89;88.29;101026.09;10412007;28;20033;-65
2021/08/02 01:48:55;;;;;;;0.00;0.00;;;;;;;12.85;88.75;101026.59;10412641;28;20096;-65
2021/08/02 01:54:05;;;;;;;0.10;0.10;;;;;;;12.80;88.93;101031.59;10411830;28;20033;-65
2021/08/02 01:59:08;;;;;;;0.10;0.10;;;;;;;12.75;88.89;101029.47;10412129;28;20169;-65
2021/08/02 02:04:09;;;;;;;0.10;0.10;;;;;;;12.71;89.05;101022.75;10426708;28;20484;-64
2021/08/02 02:09:13;;;;;;;0.10;0.10;;;;;;;12.72;89.30;101019.09;10433246;28;20033;-63
2021/08/02 02:14:15;;;;;;;0.10;0.10;;;;;;;12.76;89.31;101028.44;10464601;28;20029;-65
2021/08/02 02:19:22;;;;;;;0.10;0.10;;;;;;;12.80;89.29;101029.78;10451844;28;20047;-65
2021/08/02 02:24:23;;;;;;;0.10;0.10;;;;;;;12.84;89.26;101032.97;10451798;28;20056;-64
2021/08/02 02:29:24;;;;;;;0.10;0.10;;;;;;;12.88;88.84;101034.28;10451770;28;20487;-64
2021/08/02 02:34:24;;;;;;;0.10;0.10;;;;;;;12.95;89.00;101042.47;10451377;28;20709;-65
2021/08/02 02:39:27;;;;;;;0.10;0.10;;;;;;;13.01;88.13;101050.66;10422489;23;20053;-63
2021/08/02 02:44:28;;;;;;;0.00;0.00;;;;;;;13.05;88.63;101051.97;10373011;28;20076;-63
2021/08/02 02:49:30;;;;;;;0.10;0.10;;;;;;;13.04;88.76;101044.97;10369670;28;20397;-63
2021/08/02 02:54:31;;;;;;;0.03;0.03;;;;;;;13.04;88.79;101057.50;10370727;28;20068;-62
2021/08/02 02:59:32;;;;;;;0.10;0.10;;;;;;;13.03;88.97;101051.31;10368284;28;20065;-63
2021/08/02 03:04:38;;;;;;;0.00;0.00;;;;;;;13.03;88.58;101045.97;10368946;28;20069;-63
2021/08/02 03:09:41;;;;;;;0.10;0.10;;;;;;;13.02;88.51;101041.63;10365735;28;20481;-61
2021/08/02 03:14:41;;;;;;;0.10;0.10;;;;;;;13.01;88.79;101037.28;10366449;28;20061;-62
2021/08/02 03:19:42;;;;;;;0.10;0.10;;;;;;;13.02;88.38;101060.31;10368182;28;20443;-61
2021/08/02 03:24:47;;;;;;;0.10;0.10;;;;;;;13.03;86.93;101058.50;10382754;28;20061;-60
2021/08/02 03:29:50;;;;;;;0.10;0.10;;;;;;;13.05;86.37;101051.13;10366858;28;20033;-63
2021/08/02 03:34:55;;;;;;;0.10;0.10;;;;;;;13.09;85.73;101058.66;10366920;28;20053;-63
2021/08/02 03:39:56;;;;;;;0.10;0.10;;;;;;;13.16;85.81;101049.97;10374128;28;20033;-60
2021/08/02 03:44:57;;;;;;;0.10;0.10;;;;;;;13.22;86.23;101054.63;10374059;28;20093;-63
2021/08/02 03:49:57;;;;;;;0.10;0.10;;;;;;;13.23;86.58;101054.44;10348451;28;20358;-63
2021/08/02 03:54:58;;;;;;;0.10;0.10;;;;;;;13.26;87.05;101067.50;10369934;28;20026;-63
2021/08/02 03:59:58;;;;;;;0.10;0.10;;;;;;;13.30;86.95;101065.34;10364086;28;20747;-61
2021/08/02 04:04:59;;;;;;;0.10;0.10;;;;;;;13.31;87.77;101069.69;10362667;28;20480;-60
2021/08/02 04:09:59;;;;;;;0.00;0.00;;;;;;;13.31;87.59;101075.03;10365557;28;20030;-63
2021/08/02 04:15:00;;;;;;;0.10;0.10;;;;;;;13.31;87.12;101067.81;10366770;28;20344;-61
2021/08/02 04:20:00;;;;;;;0.10;0.10;;;;;;;13.36;86.96;101072.69;10383951;28;20108;-62
2021/08/02 04:25:01;;;;;;;0.08;0.08;;;;;;;13.41;86.83;101077.50;10406881;28;20037;-61
2021/08/02 04:30:02;;;;;;;0.08;0.08;;;;;;;13.45;87.14;101086.88;10407129;28;20036;-61
2021/08/02 04:35:02;;;;;;;0.10;0.10;;;;;;;13.50;87.41;101097.91;10397514;28;20034;-62
2021/08/02 04:40:05;;;;;;;0.10;0.10;;;;;;;13.48;88.78;101089.19;10366303;28;20034;-60
2021/08/02 04:45:06;;;;;;;0.10;0.10;;;;;;;13.43;88.80;101105.75;10366144;28;20030;-61
2021/08/02 04:50:07;;;;;;;0.10;0.10;;;;;;;13.45;89.39;101095.72;10369350;28;20392;-62
2021/08/02 04:55:08;;;;;;;0.10;0.10;;;;;;;13.56;89.12;101106.06;10405671;28;20033;-62
2021/08/02 05:00:08;;;;;;;0.10;0.10;;;;;;;13.66;89.09;101102.34;10404984;28;20179;-62
2021/08/02 05:05:09;;;;;;;0.10;0.10;;;;;;;13.74;88.37;101110.34;10403332;28;20397;-61
2021/08/02 05:10:10;;;;;;;0.10;0.10;;;;;;;13.80;88.25;101107.00;10372856;28;20201;-62
2021/08/02 05:15:12;;;;;;;0.10;0.10;;;;;;;13.89;88.34;101113.97;10373406;28;20034;-61
2021/08/02 05:20:13;;;;;;;0.10;0.10;;;;;;;13.95;88.27;101117.81;10372746;28;20022;-61
2021/08/02 05:25:13;;;;;;;0.10;0.10;;;;;;;14.00;87.92;101121.63;10384598;28;20045;-61
2021/08/02 05:30:15;;;;;;;0.10;0.10;;;;;;;14.13;87.46;101118.38;10372299;28;20480;-60
2021/08/02 05:35:15;;;;;;;0.10;0.10;;;;;;;14.31;86.47;101119.97;10372360;28;20030;-62
2021/08/02 05:40:15;;;;;;;0.10;0.10;;;;;;;14.48;85.30;101119.66;10389959;28;20033;-61
2021/08/02 05:45:16;;;;;;;0.15;0.15;;;;;;;14.73;84.54;101122.22;10371203;28;20038;-62
2021/08/02 05:50:16;;;;;;;0.10;0.10;;;;;;;14.89;83.12;101116.75;10370948;28;20032;-62
2021/08/02 05:55:17;;;;;;;0.10;0.10;;;;;;;15.21;84.04;101120.13;10396313;28;20096;-62
2021/08/02 06:00:17;;;;;;;0.10;0.10;;;;;;;15.60;81.16;101113.72;10411295;28;20025;-62
2021/08/02 06:05:18;;;;;;;0.10;0.10;;;;;;;15.97;80.94;101120.00;10411925;28;20036;-62
2021/08/02 06:10:18;;;;;;;0.10;0.10;;;;;;;16.29;78.44;101119.59;10408710;28;20033;-62
2021/08/02 06:15:18;;;;;;;0.00;0.00;;;;;;;16.51;78.61;101122.28;10400255;28;20041;-61
2021/08/02 06:20:19;;;;;;;0.10;0.10;;;;;;;17.37;76.22;101123.06;10369854;28;20386;-61
2021/08/02 06:25:19;;;;;;;0.10;0.10;;;;;;;17.80;74.20;101127.50;10378226;28;20439;-62
2021/08/02 06:30:19;;;;;;;0.00;0.00;;;;;;;17.77;74.13;101127.84;10405973;28;20028;-61
2021/08/02 06:35:20;;;;;;;0.00;0.00;;;;;;;17.88;73.86;101124.63;10407384;28;20268;-61
2021/08/02 06:40:20;;;;;;;0.00;0.00;;;;;;;17.90;73.91;101133.34;10409655;28;20025;-62
2021/08/02 06:45:21;;;;;;;0.00;0.00;;;;;;;17.48;74.32;101137.84;10386357;28;20065;-62
2021/08/02 06:50:21;;;;;;;0.00;0.00;;;;;;;16.88;75.74;101136.56;10368546;28;20029;-62
2021/08/02 06:55:21;;;;;;;0.00;0.00;;;;;;;16.23;78.33;101168.72;10369334;28;20025;-61
2021/08/02 07:00:22;;;;;;;0.10;0.10;;;;;;;15.67;81.42;101176.38;10402031;28;20503;-63
2021/08/02 07:05:22;;;;;;;0.00;0.00;;;;;;;15.24;84.17;101178.84;10397109;28;20040;-68
2021/08/02 07:10:22;;;;;;;0.10;0.10;;;;;;;15.03;85.72;101175.97;10385532;28;20112;-67
2021/08/02 07:15:23;;;;;;;0.10;0.10;;;;;;;15.10;85.86;101176.94;10366337;28;20404;-66
2021/08/02 07:20:23;;;;;;;0.10;0.10;;;;;;;15.44;87.04;101181.81;10367870;28;20080;-65
2021/08/02 07:25:23;;;;;;;0.10;0.10;;;;;;;15.94;86.19;101174.97;10367907;28;20026;-65
2021/08/02 07:30:24;;;;;;;0.10;0.10;;;;;;;16.49;84.12;101178.09;10376818;28;20367;-64
2021/08/02 07:35:24;;;;;;;0.10;0.10;;;;;;;16.92;81.76;101176.31;10396207;28;20089;-64
2021/08/02 07:40:25;;;;;;;0.10;0.10;;;;;;;17.25;80.60;101183.88;10366948;28;20400;-63
2021/08/02 07:45:25;;;;;;;0.00;0.00;;;;;;;17.36;77.95;101187.88;10388963;28;20765;-63
2021/08/02 07:50:26;;;;;;;0.00;0.00;;;;;;;17.61;76.54;101183.72;10378442;28;20056;-63
2021/08/02 07:55:26;;;;;;;0.10;0.10;;;;;;;17.80;76.94;101176.84;10367827;28;20396;-63
2021/08/02 08:00:27;;;;;;;0.00;0.00;;;;;;;18.47;74.02;101179.81;10364623;28;20389;-62
2021/08/02 08:05:29;;;;;;;0.08;0.08;;;;;;;19.08;72.84;101184.34;10367084;28;20030;-63
2021/08/02 08:10:29;;;;;;;0.10;0.10;;;;;;;20.04;70.39;101175.72;10366243;28;20422;-62
2021/08/02 08:15:29;;;;;;;0.00;0.00;;;;;;;20.96;65.82;101174.44;10367071;28;20030;-62
2021/08/02 08:20:30;;;;;;;0.00;0.00;;;;;;;20.64;66.84;101181.72;10371704;28;20061;-62
2021/08/02 08:25:30;;;;;;;0.00;0.00;;;;;;;21.32;66.71;101181.06;10368210;28;20030;-61
2021/08/02 08:30:30;;;;;;;0.10;0.10;;;;;;;22.03;61.58;101170.75;10364339;28;20038;-62
2021/08/02 08:35:31;;;;;;;0.00;0.00;;;;;;;21.86;63.20;101162.41;10368289;28;20305;-62
2021/08/02 08:40:33;;;;;;;0.03;0.03;;;;;;;22.37;63.88;101174.75;10372509;28;20339;-63
2021/08/02 08:45:33;;;;;;;0.10;0.10;;;;;;;22.75;58.33;101170.91;10439578;23;20057;-63
2021/08/02 08:50:38;;;;;;;0.03;0.03;;;;;;;22.75;61.25;101171.72;10428365;28;20041;-63
2021/08/02 08:55:43;;;;;;;0.10;0.10;;;;;;;23.40;55.22;101170.91;10375547;28;20045;-65
2021/08/02 09:00:43;;;;;;;0.00;0.00;;;;;;;23.58;59.49;101174.56;10374656;28;20419;-64
2021/08/02 09:05:43;;;;;;;0.00;0.00;;;;;;;22.44;56.23;101161.91;10374913;28;20034;-65
2021/08/02 09:10:55;;;;;;;0.10;0.10;;;;;;;21.66;61.46;101163.44;10401846;28;20068;-66
2021/08/02 09:15:57;;;;;;;0.10;0.10;;;;;;;20.91;58.74;101176.16;10415368;28;20045;-66
2021/08/02 09:21:02;;;;;;;0.10;0.10;;;;;;;21.39;58.23;101179.13;10407525;28;20382;-67
2021/08/02 09:26:02;;;;;;;0.00;0.00;;;;;;;22.21;58.49;101189.75;10414877;28;20068;-67
2021/08/02 09:31:05;;;;;;;0.00;0.00;;;;;;;22.63;54.98;101181.72;10414895;28;20123;-65
2021/08/02 09:36:05;;;;;;;0.10;0.10;;;;;;;22.58;52.50;101193.25;10413139;28;20492;-63
2021/08/02 09:41:06;;;;;;;0.00;0.00;;;;;;;21.92;52.88;101197.56;10414430;28;20045;-63
2021/08/02 09:46:07;;;;;;;0.00;0.00;;;;;;;22.39;57.25;101191.63;10409353;28;20034;-64
2021/08/02 09:51:14;;;;;;;0.00;0.00;;;;;;;22.68;56.51;101192.69;10372148;28;20133;-64
2021/08/02 09:56:17;;;;;;;0.00;0.00;;;;;;;22.80;53.46;101198.16;10373380;28;20385;-62
2021/08/02 10:01:20;;;;;;;0.00;0.00;;;;;;;21.09;59.30;101227.69;10372548;28;20425;-64
2021/08/02 10:06:20;;;;;;;;;;;;;;;19.02;66.76;101239.16;10372653;28;20115;-64
2021/08/02 10:11:21;;;;;;;0.00;0.00;;;;;;;17.72;70.08;101232.72;10400165;28;19936;-66
2021/08/02 10:16:27;;;;;;;0.00;0.00;;;;;;;17.25;72.96;101250.31;10412899;28;20380;-66
2021/08/02 10:21:46;;;;;;;0.10;0.10;;;;;;;17.09;72.79;101243.34;10412138;28;20290;-64
2021/08/02 10:26:59;;;;;;;0.10;0.10;;;;;;;17.25;72.52;101255.69;10412743;28;20120;-65
2021/08/02 10:32:02;;;;;;;0.00;0.00;;;;;;;17.59;72.76;101242.34;10412219;28;20033;-65
2021/08/02 10:37:05;;;;;;;0.10;0.10;;;;;;;17.80;72.68;101257.69;10412297;28;20108;-66
2021/08/02 10:42:09;;;;;;;;;;;;;;;17.94;71.22;101261.28;10411781;28;20480;-66
2021/08/02 10:47:09;;;;;;;0.10;0.10;;;;;;;18.22;72.15;101266.63;10410933;28;20070;-65
2021/08/02 10:52:10;;;;;;;0.00;0.00;;;;;;;18.67;71.14;101255.44;10409557;28;20176;-64
2021/08/02 10:57:12;;;;;;;0.00;0.00;;;;;;;19.02;69.45;101248.09;10400950;28;20046;-63
2021/08/02 11:02:12;;;;;;;0.10;0.10;;;;;;;19.31;67.13;101244.19;10392232;28;20125;-65
2021/08/02 11:07:13;;;;;;;0.10;0.10;;;;;;;19.87;67.87;101249.19;10390099;28;20038;-62
2021/08/02 11:12:14;;;;;;;0.00;0.00;;;;;;;20.24;65.53;101244.09;10376042;28;20029;-64
2021/08/02 11:17:16;;;;;;;0.10;0.10;;;;;;;20.22;64.17;101240.78;10382035;28;20033;-64
2021/08/02 11:22:17;;;;;;;0.00;0.00;;;;;;;19.81;64.78;101255.44;10384430;28;20026;-64
2021/08/02 11:27:18;;;;;;;0.00;0.00;;;;;;;19.42;66.86;101261.66;10377239;28;20075;-64
2021/08/02 11:32:22;;;;;;;0.00;0.00;;;;;;;19.11;68.65;101256.81;10381135;28;20116;-64
2021/08/02 11:37:26;;;;;;;0.10;0.10;;;;;;;18.58;69.22;101260.16;10378320;28;20033;-63
2021/08/02 11:42:31;;;;;;;0.10;0.10;;;;;;;17.82;69.47;101269.06;10379467;28;20108;-66
2021/08/02 11:47:35;;;;;;;0.10;0.10;;;;;;;17.28;74.74;101274.16;10370627;28;20077;-67
2021/08/02 11:52:36;;;;;;;0.10;0.10;;;;;;;17.02;77.72;101274.75;10378760;28;20021;-66
2021/08/02 11:57:36;;;;;;;0.10;0.10;;;;;;;16.99;78.17;101275.97;10407596;28;20072;-67
2021/08/02 12:02:39;;;;;;;0.10;0.10;;;;;;;17.08;78.85;101269.44;10407421;28;20489;-67
2021/08/02 12:07:39;;;;;;;0.00;0.00;;;;;;;17.42;79.75;101275.97;10400031;28;20122;-67
2021/08/02 12:12:40;;;;;;;0.10;0.10;;;;;;;17.78;77.51;101272.38;10379223;28;20026;-66
2021/08/02 12:17:47;;;;;;;0.10;0.10;;;;;;;18.10;74.48;101276.31;10389097;28;20049;-66
2021/08/02 12:22:48;;;;;;;0.00;0.00;;;;;;;18.40;73.94;101276.91;10393550;28;20068;-65
2021/08/02 12:27:58;;;;;;;0.00;0.00;;;;;;;18.51;72.52;101264.72;10377074;28;20061;-64
2021/08/02 12:32:59;;;;;;;0.10;0.10;;;;;;;19.17;74.49;101264.94;10376868;28;20025;-65
2021/08/02 12:38:01;;;;;;;0.00;0.00;;;;;;;19.91;68.34;101263.13;10415381;28;20400;-65
2021/08/02 12:43:02;;;;;;;0.10;0.10;;;;;;;19.96;65.92;101257.09;10411958;28;20288;-65
2021/08/02 12:48:03;;;;;;;0.03;0.03;;;;;;;19.55;68.03;101277.03;10379137;28;20029;-63
2021/08/02 12:53:04;;;;;;;0.00;0.00;;;;;;;19.51;67.11;101267.69;10397745;28;20726;-62
2021/08/02 12:58:04;;;;;;;0.00;0.00;;;;;;;20.01;67.38;101259.97;10398434;28;20107;-65
2021/08/02 13:03:05;;;;;;;0.00;0.00;;;;;;;19.86;65.42;101263.72;10414031;28;20079;-65
2021/08/02 13:08:05;;;;;;;0.00;0.00;;;;;;;19.39;64.60;101273.69;10406453;28;20045;-65
2021/08/02 13:13:05;;;;;;;0.00;0.00;;;;;;;19.81;63.97;101265.41;10385266;28;20236;-65
2021/08/02 13:18:07;;;;;;;0.10;0.10;;;;;;;20.19;66.81;101276.38;10373570;28;20256;-65
2021/08/02 13:23:20;;;;;;;0.00;0.00;;;;;;;19.75;63.58;101269.81;10386410;28;20040;-65
2021/08/02 13:28:21;;;;;;;0.10;0.10;;;;;;;19.76;64.24;101282.25;10390060;28;20031;-65
2021/08/02 13:33:22;;;;;;;0.00;0.00;;;;;;;20.30;62.07;101273.03;10357380;28;20401;-64
2021/08/02 13:38:23;;;;;;;0.08;0.08;;;;;;;20.89;59.74;101270.31;10386044;28;20037;-65
2021/08/02 13:43:23;;;;;;;0.10;0.10;;;;;;;20.67;57.11;101262.50;10372771;28;20041;-65
2021/08/02 13:48:24;;;;;;;0.00;0.00;;;;;;;20.37;58.14;101264.06;10376111;28;20038;-64
2021/08/02 13:53:24;;;;;;;0.00;0.00;;;;;;;20.28;59.27;101267.00;10391425;28;20026;-65
2021/08/02 13:58:24;;;;;;;0.10;0.10;;;;;;;20.23;61.23;101272.19;10376105;28;20080;-65
2021/08/02 14:03:25;;;;;;;0.00;0.00;;;;;;;20.08;61.58;101282.44;10391690;28;20033;-63
2021/08/02 14:08:25;;;;;;;0.00;0.00;;;;;;;20.22;63.70;101273.25;10411968;28;20025;-64
2021/08/02 14:13:33;;;;;;;0.00;0.00;;;;;;;20.72;58.12;101281.63;10386629;28;20034;-64
2021/08/02 14:18:38;;;;;;;0.10;0.10;;;;;;;20.61;58.63;101268.78;10370738;28;20030;-64
2021/08/02 14:23:43;;;;;;;0.00;0.00;;;;;;;20.72;56.46;101272.69;10370314;28;20034;-64
2021/08/02 14:28:43;;;;;;;0.10;0.10;;;;;;;21.00;56.08;101283.16;10379663;28;20640;-65
2021/08/02 14:33:46;;;;;;;0.00;0.00;;;;;;;21.19;54.51;101275.97;10397542;28;20031;-64
2021/08/02 14:38:48;;;;;;;0.10;0.10;;;;;;;21.06;55.67;101273.31;10387209;28;20029;-66
2021/08/02 14:43:50;;;;;;;0.00;0.00;;;;;;;21.32;57.18;101266.91;10386532;28;20260;-66
2021/08/02 14:48:52;;;;;;;0.10;0.10;;;;;;;21.18;56.60;101267.00;10385998;28;20026;-64
2021/08/02 14:53:54;;;;;;;0.00;0.00;;;;;;;20.63;57.57;101273.97;10391361;28;20248;-66
2021/08/02 14:58:56;;;;;;;0.08;0.08;;;;;;;20.00;61.93;101283.47;10451910;22;20065;-92
2021/08/02 15:03:57;;;;;;;0.10;0.10;;;;;;;19.45;64.17;101286.38;10477650;22;20052;-62
2021/08/02 15:09:00;;;;;;;0.00;0.00;;;;;;;19.10;66.21;101293.78;10461600;28;20039;-62
2021/08/02 15:14:01;;;;;;;;;;;;;;;18.94;65.34;101294.19;10450302;28;20154;-62
2021/08/02 15:19:09;;;;;;;0.00;0.00;;;;;;;18.90;66.52;101291.03;10460356;28;19909;-67
2021/08/02 15:24:12;;;;;;;0.00;0.00;;;;;;;19.02;65.13;101295.84;10449434;28;20033;-65
2021/08/02 15:29:18;;;;;;;0.00;0.00;;;;;;;19.15;66.45;101304.00;10414782;28;20471;-68
2021/08/02 15:34:19;;;;;;;0.10;0.10;;;;;;;19.35;65.12;101299.47;10449162;28;20470;-68
2021/08/02 15:39:19;;;;;;;0.10;0.10;;;;;;;19.32;64.16;101299.88;10447516;28;20463;-68
2021/08/02 15:44:25;;;;;;;0.00;0.00;;;;;;;19.33;65.52;101306.09;10448434;28;20112;-69
2021/08/02 15:49:26;;;;;;;0.00;0.00;;;;;;;19.36;65.96;101309.22;10448734;28;20120;-68
2021/08/02 15:54:27;;;;;;;0.00;0.00;;;;;;;19.41;65.78;101314.84;10455978;28;20139;-68
2021/08/02 15:59:44;;;;;;;0.00;0.00;;;;;;;19.39;63.63;101313.38;10481828;28;20071;-69
2021/08/02 16:04:50;;;;;;;0.00;0.00;;;;;;;19.28;63.70;101312.09;10477083;28;20040;-68
2021/08/02 16:10:01;;;;;;;0.00;0.00;;;;;;;19.03;63.36;101319.13;10488554;28;20069;-68
2021/08/02 16:15:03;;;;;;;0.10;0.10;;;;;;;18.84;63.35;101316.13;10489747;28;20052;-69
2021/08/02 16:20:04;;;;;;;0.00;0.00;;;;;;;18.78;63.55;101325.03;10489682;28;20394;-68
2021/08/02 16:25:05;;;;;;;0.10;0.10;;;;;;;18.67;64.53;101328.28;10487741;28;20037;-68
2021/08/02 16:30:07;;;;;;;0.10;0.10;;;;;;;18.53;65.72;101325.53;10485966;28;20578;-67
2021/08/02 16:35:09;;;;;;;0.10;0.10;;;;;;;18.32;66.92;101331.00;10489298;28;20071;-67
2021/08/02 16:40:10;;;;;;;0.10;0.10;;;;;;;18.25;69.33;101335.53;10489794;28;20085;-68
2021/08/02 16:45:13;;;;;;;0.00;0.00;;;;;;;18.20;69.09;101337.97;10489682;28;20392;-68
2021/08/02 16:50:13;;;;;;;0.03;0.03;;;;;;;18.20;69.80;101341.50;10488690;28;20362;-66
2021/08/02 16:55:13;;;;;;;0.10;0.10;;;;;;;18.16;69.15;101334.84;10488903;28;20025;-67
2021/08/02 17:00:14;;;;;;;0.00;0.00;;;;;;;18.07;68.63;101342.25;10495335;28;20123;-67
2021/08/02 17:05:14;;;;;;;0.10;0.10;;;;;;;18.01;69.14;101337.63;10496238;28;20460;-67
2021/08/02 17:10:15;;;;;;;0.10;0.10;;;;;;;17.90;68.95;101335.47;10494893;28;20051;-68
2021/08/02 17:15:15;;;;;;;0.00;0.00;;;;;;;17.79;69.69;101336.00;10495886;28;20037;-68
2021/08/02 17:20:16;;;;;;;0.10;0.10;;;;;;;17.74;70.81;101333.84;10496102;28;20028;-68
2021/08/02 17:25:16;;;;;;;0.00;0.00;;;;;;;17.69;70.78;101332.78;10495853;28;20040;-67
2021/08/02 17:30:17;;;;;;;0.10;0.10;;;;;;;17.61;71.46;101331.03;10495763;28;20063;-68
2021/08/02 17:35:17;;;;;;;0.00;0.00;;;;;;;17.53;72.73;101332.00;10495929;28;20037;-67
2021/08/02 17:40:17;;;;;;;0.00;0.00;;;;;;;17.40;72.92;101335.41;10495269;28;20106;-67
2021/08/02 17:45:18;;;;;;;0.10;0.10;;;;;;;17.20;72.99;101331.66;10495678;28;20328;-67
2021/08/02 17:50:19;;;;;;;0.00;0.00;;;;;;;17.10;74.52;101342.72;10495003;28;20070;-67
2021/08/02 17:55:19;;;;;;;0.10;0.10;;;;;;;17.02;75.36;101353.63;10494542;28;20032;-66
2021/08/02 18:00:21;;;;;;;0.10;0.10;;;;;;;16.98;75.85;101355.84;10494544;28;20028;-67
2021/08/02 18:05:22;;;;;;;0.00;0.00;;;;;;;16.91;75.96;101357.63;10492418;28;20048;-67
2021/08/02 18:10:23;;;;;;;0.00;0.00;;;;;;;16.86;76.19;101359.22;10493275;28;20020;-67
2021/08/02 18:15:23;;;;;;;0.10;0.10;;;;;;;16.75;75.64;101365.84;10493897;28;20044;-67
2021/08/02 18:20:23;;;;;;;0.10;0.10;;;;;;;16.67;76.39;101372.19;10492878;28;20391;-68
2021/08/02 18:25:24;;;;;;;0.10;0.10;;;;;;;16.60;76.90;101376.63;10454490;28;20029;-67
2021/08/02 18:30:24;;;;;;;0.10;0.10;;;;;;;16.55;77.64;101384.44;10451429;28;20325;-67
2021/08/02 18:35:24;;;;;;;0.10;0.10;;;;;;;16.49;76.36;101374.38;10449667;28;20056;-67
2021/08/02 18:40:25;;;;;;;0.00;0.00;;;;;;;16.42;76.84;101376.16;10450836;28;20033;-67
2021/08/02 18:45:25;;;;;;;0.00;0.00;;;;;;;16.33;76.40;101382.66;10450804;28;20369;-67
2021/08/02 18:50:26;;;;;;;0.08;0.08;;;;;;;16.27;77.57;101385.03;10463496;28;20047;-67
2021/08/02 18:55:27;;;;;;;0.00;0.00;;;;;;;16.20;77.83;101391.31;10491609;28;20181;-66
2021/08/02 19:00:28;;;;;;;0.00;0.00;;;;;;;16.12;78.20;101394.94;10491332;28;20035;-67
2021/08/02 19:05:29;;;;;;;0.07;0.07;;;;;;;16.05;78.26;101408.25;10472997;28;20041;-67
2021/08/02 19:10:30;;;;;;;0.10;0.10;;;;;;;15.97;78.24;101405.66;10491143;28;20040;-67
2021/08/02 19:15:30;;;;;;;0.10;0.10;;;;;;;15.91;78.23;101411.75;10491053;28;20028;-67
2021/08/02 19:20:33;;;;;;;0.10;0.10;;;;;;;15.79;79.07;101408.59;10490600;28;20031;-68
2021/08/02 19:25:36;;;;;;;0.10;0.10;;;;;;;15.71;79.86;101416.75;10491609;28;20040;-66
2021/08/02 19:30:38;;;;;;;0.10;0.10;;;;;;;15.66;80.10;101412.91;10475641;28;20024;-67
2021/08/02 19:35:40;;;;;;;0.10;0.10;;;;;;;15.58;79.48;101413.78;10448926;28;20029;-68
2021/08/02 19:40:50;;;;;;;0.10;0.10;;;;;;;15.55;79.13;101424.88;10449201;28;20074;-67
2021/08/02 19:45:55;;;;;;;0.10;0.10;;;;;;;15.50;79.32;101424.56;10448765;28;20404;-67
2021/08/02 19:50:57;;;;;;;0.10;0.10;;;;;;;15.45;79.53;101426.97;10448528;28;20112;-66
2021/08/02 19:56:02;;;;;;;0.10;0.10;;;;;;;15.39;80.15;101425.81;10449148;28;20110;-68
2021/08/02 20:01:02;;;;;;;0.10;0.10;;;;;;;15.34;80.28;101431.69;10448500;28;20045;-66
2021/08/02 20:06:03;;;;;;;0.10;0.10;;;;;;;15.24;81.24;101431.09;10430128;28;20147;-65
2021/08/02 20:11:04;;;;;;;0.10;0.10;;;;;;;15.09;81.35;101446.22;10448014;28;20024;-66
2021/08/02 20:16:07;;;;;;;0.10;0.10;;;;;;;15.07;81.97;101442.91;10458841;28;20467;-66
2021/08/02 20:21:16;;;;;;;0.00;0.00;;;;;;;15.04;82.02;101451.28;10489336;28;20449;-67
2021/08/02 20:26:26;;;;;;;0.10;0.10;;;;;;;14.92;82.48;101461.53;10483744;28;20083;-66
2021/08/02 20:31:31;;;;;;;0.00;0.00;;;;;;;14.76;83.28;101454.38;10468569;28;20028;-67
2021/08/02 20:36:36;;;;;;;0.00;0.00;;;;;;;14.64;82.78;101466.47;10484127;28;20063;-66
2021/08/02 20:41:37;;;;;;;0.10;0.10;;;;;;;14.59;82.76;101479.56;10455276;28;20029;-67
2021/08/02 20:46:39;;;;;;;0.10;0.10;;;;;;;14.54;83.63;101469.31;10455143;28;20071;-66
2021/08/02 20:51:43;;;;;;;0.10;0.10;;;;;;;14.49;84.21;101475.19;10454755;28;20039;-68
2021/08/02 20:56:44;;;;;;;0.10;0.10;;;;;;;14.46;84.93;101472.84;10454033;28;20036;-66
2021/08/02 21:02:33;;;;;;;0.10;0.10;;;;;;;14.43;85.73;101480.38;10470108;28;20172;-65
2021/08/02 21:07:45;;;;;;;0.10;0.10;;;;;;;14.35;85.91;101481.22;10412912;28;20055;-66
2021/08/02 21:17:58;;;;;;;0.00;0.00;;;;;;;14.23;85.77;101485.25;10424715;28;20548;-66
2021/08/02 21:23:03;;;;;;;0.10;0.10;;;;;;;14.14;85.49;101487.06;10444927;28;20167;-66
2021/08/02 21:28:04;;;;;;;0.10;0.10;;;;;;;14.06;85.89;101480.88;10452565;28;20044;-64
2021/08/02 21:33:07;;;;;;;0.10;0.10;;;;;;;13.98;86.60;101485.19;10422324;28;20536;-64
2021/08/02 21:38:07;;;;;;;0.10;0.10;;;;;;;13.92;86.81;101491.22;10407674;28;20206;-67
2021/08/02 21:43:07;;;;;;;0.10;0.10;;;;;;;13.82;87.51;101498.59;10424810;28;20038;-65
2021/08/02 21:48:08;;;;;;;0.00;0.00;;;;;;;13.74;87.47;101502.06;10414802;28;20033;-65
2021/08/02 21:53:08;;;;;;;0.10;0.10;;;;;;;13.74;88.03;101502.06;10413589;28;20488;-65
2021/08/02 21:58:09;;;;;;;0.10;0.10;;;;;;;13.81;88.68;101507.59;10414207;28;20041;-64
2021/08/02 22:03:09;;;;;;;0.10;0.10;;;;;;;13.90;89.28;101509.28;10406354;28;20292;-64
2021/08/02 22:08:09;;;;;;;0.00;0.00;;;;;;;13.90;89.03;101498.56;10413920;28;20037;-64
2021/08/02 22:13:10;;;;;;;0.10;0.10;;;;;;;13.87;88.79;101496.22;10409753;28;20021;-65
2021/08/02 22:18:10;;;;;;;0.05;0.05;;;;;;;13.84;89.18;101501.91;10412986;28;20029;-64
2021/08/02 22:23:11;;;;;;;0.10;0.10;;;;;;;13.77;89.43;101504.41;10412715;28;20112;-65
2021/08/02 22:28:11;;;;;;;0.10;0.10;;;;;;;13.72;89.49;101497.88;10412448;28;20037;-64
2021/08/02 22:33:12;;;;;;;0.10;0.10;;;;;;;13.69;89.83;101498.19;10412256;28;20400;-64
2021/08/02 22:38:13;;;;;;;0.10;0.10;;;;;;;13.70;90.82;101500.72;10411615;28;20476;-64
2021/08/02 22:43:13;;;;;;;0.10;0.10;;;;;;;13.75;90.36;101502.91;10408349;28;20040;-65
2021/08/02 22:48:14;;;;;;;0.10;0.10;;;;;;;13.80;90.30;101503.25;10410933;28;20477;-65
2021/08/02 22:53:15;;;;;;;0.00;0.00;;;;;;;13.87;90.38;101503.44;10410036;28;20039;-64
2021/08/02 22:58:29;;;;;;;0.10;0.10;;;;;;;13.94;89.57;101499.94;10413636;28;20029;-65
2021/08/02 23:03:37;;;;;;;0.10;0.10;;;;;;;14.03;88.69;101498.94;10426637;28;20395;-65
2021/08/02 23:08:42;;;;;;;0.10;0.10;;;;;;;14.08;88.18;101495.78;10431250;28;20047;-65
2021/08/02 23:13:44;;;;;;;0.00;0.00;;;;;;;14.12;88.69;101507.00;10449845;28;20029;-65
2021/08/02 23:18:48;;;;;;;0.00;0.00;;;;;;;14.09;88.94;101492.09;10450887;28;20058;-65